createdAt,value
2022-10-06T00:02:19.185Z,99.11
2022-10-06T00:04:47.194Z,99.08
2022-10-06T00:07:15.155Z,98.46
2022-10-06T00:09:42.185Z,97.24
2022-10-06T00:12:09.330Z,97.53
2022-10-06T00:14:36.622Z,97.61
2022-10-06T00:17:03.054Z,97.52
2022-10-06T00:19:29.532Z,97.96
2022-10-06T00:21:55.946Z,98.04
2022-10-06T00:24:22.416Z,99.03
2022-10-06T00:26:48.912Z,99.50
2022-10-06T00:29:15.363Z,99.34
2022-10-06T00:31:41.914Z,100.00
2022-10-06T00:34:08.480Z,99.41
2022-10-06T00:36:34.885Z,99.60
2022-10-06T00:39:01.459Z,98.06
2022-10-06T00:41:27.968Z,97.84
2022-10-06T00:43:59.364Z,98.31
2022-10-06T00:46:34.127Z,97.97
2022-10-06T00:49:22.405Z,98.12
2022-10-06T00:52:04.301Z,97.77
2022-10-06T00:54:33.546Z,98.48
2022-10-06T00:57:00.204Z,99.30
2022-10-06T00:59:26.666Z,100.00
2022-10-06T01:02:11.628Z,100.00
2022-10-06T01:04:45.068Z,100.00
2022-10-06T01:07:11.955Z,100.00
2022-10-06T01:09:38.731Z,100.00
2022-10-06T01:12:08.047Z,100.00
2022-10-06T01:14:37.452Z,100.00
2022-10-06T01:17:14.115Z,100.00
2022-10-06T01:19:54.210Z,100.00
2022-10-06T01:22:37.643Z,100.00
2022-10-06T01:25:06.279Z,100.00
2022-10-06T01:27:34.831Z,100.00
2022-10-06T01:30:01.887Z,100.00
2022-10-06T01:32:38.814Z,100.00
2022-10-06T01:35:07.200Z,100.00
2022-10-06T01:37:34.024Z,100.00
2022-10-06T01:40:00.522Z,100.00
2022-10-06T01:42:27.057Z,100.00
2022-10-06T01:44:53.483Z,100.00
2022-10-06T01:47:19.969Z,100.00
2022-10-06T01:49:46.406Z,100.00
2022-10-06T01:52:13.323Z,100.00
2022-10-06T01:54:39.832Z,100.00
2022-10-06T01:57:08.273Z,100.00
2022-10-06T01:59:34.971Z,100.00
2022-10-06T02:02:01.622Z,100.00
2022-10-06T02:04:28.386Z,100.00
2022-10-06T02:06:55.544Z,100.00
2022-10-06T02:09:23.271Z,100.00
2022-10-06T02:11:50.484Z,100.00
2022-10-06T02:14:18.058Z,100.00
2022-10-06T02:16:45.241Z,100.00
2022-10-06T02:19:12.019Z,100.00
2022-10-06T02:21:38.911Z,100.00
2022-10-06T02:24:05.677Z,100.00
2022-10-06T02:26:32.397Z,100.00
2022-10-06T02:28:58.947Z,100.00
2022-10-06T02:31:25.426Z,100.00
2022-10-06T02:33:52.018Z,100.00
2022-10-06T02:36:18.774Z,100.00
2022-10-06T02:38:45.443Z,100.00
2022-10-06T02:41:11.980Z,100.00
2022-10-06T02:43:38.484Z,100.00
2022-10-06T02:46:08.102Z,100.00
2022-10-06T02:48:34.996Z,100.00
2022-10-06T02:51:16.017Z,100.00
2022-10-06T02:53:44.123Z,100.00
2022-10-06T02:56:15.933Z,100.00
2022-10-06T02:58:43.599Z,100.00
2022-10-06T03:01:26.583Z,100.00
2022-10-06T03:03:53.126Z,100.00
2022-10-06T03:06:25.812Z,100.00
2022-10-06T03:08:54.961Z,100.00
2022-10-06T03:11:24.306Z,100.00
2022-10-06T03:13:51.812Z,100.00
2022-10-06T03:16:25.683Z,100.00
2022-10-06T03:18:53.611Z,100.00
2022-10-06T03:21:22.179Z,100.00
2022-10-06T03:23:50.969Z,100.00
2022-10-06T03:26:20.547Z,100.00
2022-10-06T03:28:47.625Z,100.00
2022-10-06T03:31:15.462Z,100.00
2022-10-06T03:33:42.071Z,100.00
2022-10-06T03:36:12.291Z,100.00
2022-10-06T03:38:40.244Z,100.00
2022-10-06T03:41:21.932Z,100.00
2022-10-06T03:43:50.737Z,100.00
2022-10-06T03:46:20.141Z,100.00
2022-10-06T03:48:47.766Z,100.00
2022-10-06T03:51:20.135Z,100.00
2022-10-06T03:53:48.939Z,100.00
2022-10-06T03:56:17.964Z,100.00
2022-10-06T03:58:48.523Z,100.00
2022-10-06T04:01:25.982Z,100.00
2022-10-06T04:03:57.563Z,100.00
2022-10-06T04:06:25.387Z,100.00
2022-10-06T04:08:52.978Z,100.00
2022-10-06T04:11:21.423Z,100.00
2022-10-06T04:13:52.137Z,100.00
2022-10-06T04:16:24.167Z,100.00
2022-10-06T04:18:52.802Z,100.00
2022-10-06T04:21:20.556Z,100.00
2022-10-06T04:23:47.484Z,100.00
2022-10-06T04:26:17.045Z,100.00
2022-10-06T04:28:44.922Z,100.00
2022-10-06T04:31:14.880Z,100.00
2022-10-06T04:33:42.375Z,100.00
2022-10-06T04:36:10.483Z,100.00
2022-10-06T04:38:37.075Z,100.00
2022-10-06T04:41:05.673Z,100.00
2022-10-06T04:43:32.137Z,100.00
2022-10-06T04:45:59.918Z,100.00
2022-10-06T04:48:28.043Z,100.00
2022-10-06T04:50:59.737Z,100.00
2022-10-06T04:53:27.518Z,100.00
2022-10-06T04:56:04.931Z,100.00
2022-10-06T04:58:35.269Z,100.00
2022-10-06T05:01:02.460Z,100.00
2022-10-06T05:03:30.034Z,100.00
2022-10-06T05:06:08.269Z,100.00
2022-10-06T05:08:35.328Z,100.00
2022-10-06T05:11:04.339Z,100.00
2022-10-06T05:13:31.596Z,100.00
2022-10-06T05:16:02.055Z,100.00
2022-10-06T05:18:30.137Z,100.00
2022-10-06T05:21:06.654Z,100.00
2022-10-06T05:23:36.424Z,100.00
2022-10-06T05:26:03.646Z,100.00
2022-10-06T05:28:32.058Z,100.00
2022-10-06T05:31:03.834Z,100.00
2022-10-06T05:33:32.877Z,100.00
2022-10-06T05:36:02.071Z,100.00
2022-10-06T05:38:29.549Z,100.00
2022-10-06T05:41:12.780Z,100.00
2022-10-06T05:43:40.222Z,100.00
2022-10-06T05:46:10.744Z,100.00
2022-10-06T05:48:37.178Z,100.00
2022-10-06T05:51:06.420Z,100.00
2022-10-06T05:53:34.308Z,100.00
2022-10-06T05:56:06.383Z,100.00
2022-10-06T05:58:33.606Z,100.00
2022-10-06T06:01:18.929Z,100.00
2022-10-06T06:03:52.237Z,100.00
2022-10-06T06:06:20.426Z,100.00
2022-10-06T06:08:48.267Z,100.00
2022-10-06T06:11:14.929Z,100.00
2022-10-06T06:13:41.375Z,100.00
2022-10-06T06:16:13.545Z,100.00
2022-10-06T06:18:40.882Z,100.00
2022-10-06T06:21:09.451Z,100.00
2022-10-06T06:23:46.820Z,100.00
2022-10-06T06:26:27.428Z,100.00
2022-10-06T06:28:56.346Z,100.00
2022-10-06T06:31:26.675Z,100.00
2022-10-06T06:33:58.317Z,100.00
2022-10-06T06:36:28.532Z,100.00
2022-10-06T06:38:56.615Z,100.00
2022-10-06T06:41:27.051Z,100.00
2022-10-06T06:43:54.494Z,100.00
2022-10-06T06:46:25.761Z,100.00
2022-10-06T06:48:55.887Z,100.00
2022-10-06T06:51:24.150Z,100.00
2022-10-06T06:53:52.006Z,100.00
2022-10-06T06:56:19.171Z,100.00
2022-10-06T06:58:49.091Z,100.00
2022-10-06T07:01:18.408Z,100.00
2022-10-06T07:03:57.537Z,100.00
2022-10-06T07:06:29.422Z,100.00
2022-10-06T07:08:58.262Z,100.00
2022-10-06T07:11:27.533Z,100.00
2022-10-06T07:14:01.358Z,100.00
2022-10-06T07:16:48.797Z,100.00
2022-10-06T07:19:35.852Z,100.00
2022-10-06T07:22:27.073Z,100.00
2022-10-06T07:25:07.155Z,100.00
2022-10-06T07:27:47.157Z,100.00
2022-10-06T07:30:18.999Z,100.00
2022-10-06T07:32:46.728Z,100.00
2022-10-06T07:35:13.568Z,100.00
2022-10-06T07:37:40.655Z,100.00
2022-10-06T07:40:08.585Z,100.00
2022-10-06T07:42:47.860Z,100.00
2022-10-06T07:45:41.788Z,100.00
2022-10-06T07:48:14.518Z,100.00
2022-10-06T07:50:42.988Z,100.00
2022-10-06T07:53:09.501Z,100.00
2022-10-06T07:55:39.745Z,100.00
2022-10-06T07:58:18.252Z,100.00
2022-10-06T08:00:46.192Z,100.00
2022-10-06T08:03:18.066Z,100.00
2022-10-06T08:05:50.084Z,100.00
2022-10-06T08:08:16.848Z,100.00
2022-10-06T08:10:44.311Z,100.00
2022-10-06T08:13:10.784Z,100.00
2022-10-06T08:15:37.429Z,100.00
2022-10-06T08:18:12.252Z,99.61
2022-10-06T08:20:48.294Z,96.88
2022-10-06T08:23:14.768Z,97.05
2022-10-06T08:25:43.302Z,95.25
2022-10-06T08:28:11.190Z,95.47
2022-10-06T08:30:37.962Z,95.16
2022-10-06T08:33:05.821Z,93.91
2022-10-06T08:35:33.077Z,94.60
2022-10-06T08:37:59.690Z,95.21
2022-10-06T08:40:27.439Z,94.31
2022-10-06T08:42:56.842Z,92.94
2022-10-06T08:45:29.661Z,91.44
2022-10-06T08:48:00.378Z,92.31
2022-10-06T08:50:29.383Z,91.43
2022-10-06T08:53:20.918Z,87.72
2022-10-06T08:56:22.283Z,88.50
2022-10-06T08:58:54.598Z,84.38
2022-10-06T09:01:27.376Z,85.05
2022-10-06T09:04:01.952Z,85.22
2022-10-06T09:07:07.814Z,83.50
2022-10-06T09:09:39.799Z,85.09
2022-10-06T09:12:27.547Z,82.31
2022-10-06T09:15:14.290Z,81.89
2022-10-06T09:17:50.365Z,79.37
2022-10-06T09:20:34.174Z,79.02
2022-10-06T09:23:03.383Z,80.14
2022-10-06T09:25:30.748Z,80.01
2022-10-06T09:27:59.755Z,79.90
2022-10-06T09:30:27.218Z,78.48
2022-10-06T09:33:02.724Z,77.79
2022-10-06T09:35:31.285Z,75.86
2022-10-06T09:38:08.782Z,73.70
2022-10-06T09:40:51.185Z,72.62
2022-10-06T09:43:28.741Z,72.86
2022-10-06T09:46:16.651Z,72.84
2022-10-06T09:48:43.087Z,74.28
2022-10-06T09:51:16.675Z,71.78
2022-10-06T09:53:44.796Z,72.00
2022-10-06T09:56:19.338Z,72.64
2022-10-06T09:58:57.301Z,72.64
2022-10-06T10:01:26.552Z,72.13
2022-10-06T10:04:20.623Z,71.04
2022-10-06T10:06:47.867Z,71.67
2022-10-06T10:09:20.619Z,71.06
2022-10-06T10:12:26.208Z,72.19
2022-10-06T10:15:04.490Z,73.55
2022-10-06T10:18:05.367Z,73.30
2022-10-06T10:20:52.222Z,74.28
2022-10-06T10:23:30.132Z,74.19
2022-10-06T10:26:09.605Z,75.58
2022-10-06T10:28:52.804Z,76.58
2022-10-06T10:31:48.281Z,77.03
2022-10-06T10:34:32.781Z,76.23
2022-10-06T10:37:21.896Z,74.93
2022-10-06T10:40:01.810Z,76.30
2022-10-06T10:42:37.306Z,74.35
2022-10-06T10:45:11.182Z,73.99
2022-10-06T10:47:41.951Z,75.00
2022-10-06T10:50:20.367Z,75.39
2022-10-06T10:52:50.284Z,75.59
2022-10-06T10:55:23.279Z,74.73
2022-10-06T10:57:52.051Z,74.78
2022-10-06T11:00:28.502Z,75.44
2022-10-06T11:03:01.002Z,75.04
2022-10-06T11:05:58.335Z,74.43
2022-10-06T11:08:42.984Z,73.96
2022-10-06T11:11:46.488Z,72.51
2022-10-06T11:14:31.187Z,73.41
2022-10-06T11:17:27.623Z,73.23
2022-10-06T11:20:33.449Z,72.34
2022-10-06T11:23:22.286Z,73.39
2022-10-06T11:26:15.361Z,70.27
2022-10-06T11:28:53.956Z,68.39
2022-10-06T11:31:26.384Z,68.98
2022-10-06T11:33:54.934Z,64.50
2022-10-06T11:36:56.737Z,65.75
2022-10-06T11:39:52.248Z,65.78
2022-10-06T11:42:37.014Z,60.39
2022-10-06T11:45:15.209Z,59.78
2022-10-06T11:48:05.849Z,60.00
2022-10-06T11:50:42.972Z,60.17
2022-10-06T11:53:37.311Z,59.55
2022-10-06T11:56:33.100Z,59.16
2022-10-06T11:58:59.433Z,60.58
2022-10-06T12:01:32.359Z,61.97
2022-10-06T12:04:07.560Z,60.82
2022-10-06T12:06:43.270Z,59.79
2022-10-06T12:09:33.651Z,59.66
2022-10-06T12:12:27.551Z,61.93
2022-10-06T12:16:32.539Z,58.72
2022-10-06T12:17:56.778Z,58.42
2022-10-06T12:20:33.155Z,58.83
2022-10-06T12:23:08.465Z,57.33
2022-10-06T12:26:02.926Z,56.58
2022-10-06T12:28:40.842Z,57.49
2022-10-06T12:31:29.054Z,58.49
2022-10-06T12:33:55.560Z,59.13
2022-10-06T12:36:32.089Z,57.27
2022-10-06T12:39:02.299Z,57.85
2022-10-06T12:42:06.571Z,58.63
2022-10-06T12:44:43.002Z,58.46
2022-10-06T12:47:30.132Z,58.09
2022-10-06T12:50:03.238Z,56.74
2022-10-06T12:52:51.488Z,56.26
2022-10-06T12:55:39.542Z,56.84
2022-10-06T12:58:07.944Z,57.77
2022-10-06T13:00:41.086Z,57.41
2022-10-06T13:03:15.287Z,57.81
2022-10-06T13:05:41.895Z,58.82
2022-10-06T13:08:25.058Z,57.93
2022-10-06T13:11:10.021Z,56.86
2022-10-06T13:13:38.316Z,57.93
2022-10-06T13:16:04.845Z,57.29
2022-10-06T13:18:32.866Z,57.34
2022-10-06T13:21:00.970Z,57.74
2022-10-06T13:23:30.637Z,58.26
2022-10-06T13:25:58.454Z,58.40
2022-10-06T13:28:45.044Z,57.55
2022-10-06T13:31:30.391Z,59.00
2022-10-06T13:34:09.364Z,58.61
2022-10-06T13:36:57.490Z,58.34
2022-10-06T13:39:26.861Z,59.43
2022-10-06T13:42:01.372Z,59.48
2022-10-06T13:44:39.870Z,57.74
2022-10-06T13:47:19.612Z,59.09
2022-10-06T13:49:53.441Z,58.71
2022-10-06T13:52:22.762Z,57.16
2022-10-06T13:54:56.429Z,54.11
2022-10-06T13:57:43.250Z,52.72
2022-10-06T14:00:28.788Z,50.78
2022-10-06T14:03:08.888Z,50.59
2022-10-06T14:05:40.867Z,51.50
2022-10-06T14:08:10.101Z,53.58
2022-10-06T14:10:49.785Z,54.51
2022-10-06T14:13:28.716Z,55.07
2022-10-06T14:16:17.966Z,55.61
2022-10-06T14:18:46.955Z,55.10
2022-10-06T14:21:31.449Z,53.52
2022-10-06T14:23:59.295Z,54.26
2022-10-06T14:26:28.698Z,51.32
2022-10-06T14:28:55.957Z,51.31
2022-10-06T14:31:25.467Z,50.50
2022-10-06T14:33:53.614Z,50.54
2022-10-06T14:36:25.684Z,50.49
2022-10-06T14:38:52.270Z,50.51
2022-10-06T14:41:20.120Z,50.28
2022-10-06T14:43:47.578Z,51.15
2022-10-06T14:46:15.476Z,51.24
2022-10-06T14:48:42.010Z,52.89
2022-10-06T14:51:09.462Z,53.73
2022-10-06T14:53:38.762Z,55.85
2022-10-06T14:56:10.723Z,53.24
2022-10-06T14:58:38.951Z,53.62
2022-10-06T15:01:07.612Z,53.87
2022-10-06T15:03:37.331Z,52.71
2022-10-06T15:06:25.183Z,54.10
2022-10-06T15:08:53.214Z,54.49
2022-10-06T15:11:21.333Z,53.85
2022-10-06T15:13:48.520Z,53.61
2022-10-06T15:16:16.203Z,52.51
2022-10-06T15:18:42.990Z,54.50
2022-10-06T15:21:11.376Z,54.26
2022-10-06T15:23:38.879Z,54.80
2022-10-06T15:26:24.906Z,55.90
2022-10-06T15:29:00.583Z,55.13
2022-10-06T15:31:38.596Z,54.88
2022-10-06T15:34:07.595Z,54.72
2022-10-06T15:36:36.384Z,52.06
2022-10-06T15:39:09.472Z,52.61
2022-10-06T15:41:37.217Z,52.78
2022-10-06T15:44:05.101Z,54.28
2022-10-06T15:46:37.149Z,55.20
2022-10-06T15:49:04.948Z,55.26
2022-10-06T15:51:37.204Z,57.30
2022-10-06T15:54:04.874Z,57.00
2022-10-06T15:56:32.037Z,57.25
2022-10-06T15:58:59.432Z,58.14
2022-10-06T16:01:32.563Z,58.62
2022-10-06T16:04:05.379Z,60.47
2022-10-06T16:06:49.477Z,60.85
2022-10-06T16:09:21.172Z,62.53
2022-10-06T16:11:48.159Z,63.13
2022-10-06T16:14:15.561Z,64.69
2022-10-06T16:16:43.778Z,65.09
2022-10-06T16:19:10.956Z,65.69
2022-10-06T16:21:37.749Z,64.46
2022-10-06T16:24:04.281Z,64.41
2022-10-06T16:26:32.523Z,65.02
2022-10-06T16:28:58.987Z,65.43
2022-10-06T16:31:25.511Z,65.78
2022-10-06T16:33:52.868Z,66.55
2022-10-06T16:36:19.716Z,66.19
2022-10-06T16:38:49.837Z,65.68
2022-10-06T16:41:17.038Z,68.42
2022-10-06T16:43:44.990Z,69.59
2022-10-06T16:46:14.606Z,71.01
2022-10-06T16:48:43.991Z,68.33
2022-10-06T16:51:14.960Z,71.47
2022-10-06T16:53:42.515Z,71.09
2022-10-06T16:56:13.988Z,72.31
2022-10-06T16:58:45.906Z,72.97
2022-10-06T17:01:14.153Z,72.55
2022-10-06T17:03:41.646Z,75.22
2022-10-06T17:06:14.581Z,75.23
2022-10-06T17:08:41.655Z,75.93
2022-10-06T17:11:16.760Z,76.77
2022-10-06T17:13:45.498Z,77.86
2022-10-06T17:16:18.018Z,78.48
2022-10-06T17:18:49.403Z,80.34
2022-10-06T17:21:43.362Z,83.35
2022-10-06T17:24:04.591Z,84.03
2022-10-06T17:26:33.962Z,84.02
2022-10-06T17:29:02.935Z,85.25
2022-10-06T17:31:37.913Z,85.14
2022-10-06T17:34:08.850Z,86.20
2022-10-06T17:36:37.964Z,87.81
2022-10-06T17:39:05.930Z,86.24
2022-10-06T17:41:35.360Z,86.64
2022-10-06T17:44:07.879Z,86.10
2022-10-06T17:46:38.005Z,87.91
2022-10-06T17:49:10.226Z,85.84
2022-10-06T17:51:38.875Z,87.85
2022-10-06T17:54:07.487Z,89.87
2022-10-06T17:56:35.037Z,91.28
2022-10-06T17:59:07.384Z,92.54
2022-10-06T18:01:35.832Z,92.82
2022-10-06T18:04:04.451Z,97.92
2022-10-06T18:06:34.420Z,96.73
2022-10-06T18:09:02.399Z,96.60
2022-10-06T18:11:38.477Z,98.76
2022-10-06T18:14:09.018Z,97.48
2022-10-06T18:16:42.284Z,97.39
2022-10-06T18:19:11.772Z,98.11
2022-10-06T18:21:39.603Z,100.00
2022-10-06T18:24:13.321Z,99.67
2022-10-06T18:26:41.893Z,98.93
2022-10-06T18:29:10.370Z,100.00
2022-10-06T18:31:38.654Z,100.00
2022-10-06T18:36:52.430Z,100.00
2022-10-06T18:39:19.035Z,100.00
2022-10-06T18:41:46.325Z,100.00
2022-10-06T18:44:12.804Z,100.00
2022-10-06T18:46:57.960Z,100.00
2022-10-06T18:49:25.279Z,100.00
2022-10-06T18:51:58.053Z,100.00
2022-10-06T18:54:30.493Z,100.00
2022-10-06T18:56:57.443Z,100.00
2022-10-06T18:59:27.485Z,100.00
2022-10-06T19:01:56.581Z,100.00
2022-10-06T19:04:23.820Z,100.00
2022-10-06T19:06:53.460Z,100.00
2022-10-06T19:09:23.266Z,100.00
2022-10-06T19:11:53.276Z,100.00
2022-10-06T19:14:25.678Z,100.00
2022-10-06T19:17:02.037Z,100.00
2022-10-06T19:19:30.003Z,100.00
2022-10-06T19:22:02.743Z,100.00
2022-10-06T19:24:40.598Z,100.00
2022-10-06T19:27:11.331Z,100.00
2022-10-06T19:29:45.905Z,100.00
2022-10-06T19:32:16.846Z,100.00
2022-10-06T19:34:44.557Z,100.00
2022-10-06T19:37:15.583Z,100.00
2022-10-06T19:39:45.349Z,100.00
2022-10-06T19:42:32.261Z,100.00
2022-10-06T19:44:58.653Z,100.00
2022-10-06T19:47:25.296Z,100.00
2022-10-06T19:49:52.342Z,100.00
2022-10-06T19:52:20.928Z,100.00
2022-10-06T19:54:47.599Z,100.00
2022-10-06T19:57:14.049Z,100.00
2022-10-06T19:59:40.590Z,100.00
2022-10-06T20:02:09.663Z,100.00
2022-10-06T20:04:36.642Z,100.00
2022-10-06T20:07:03.709Z,100.00
2022-10-06T20:13:24.100Z,100.00
2022-10-06T20:15:50.441Z,100.00
2022-10-06T20:18:19.311Z,100.00
2022-10-06T20:20:56.272Z,100.00
2022-10-06T20:23:23.567Z,100.00
2022-10-06T20:25:49.938Z,100.00
2022-10-06T20:28:16.316Z,100.00
2022-10-06T20:30:49.579Z,100.00
2022-10-06T20:33:16.571Z,100.00
2022-10-06T20:35:43.037Z,100.00
2022-10-06T20:38:09.606Z,100.00
2022-10-06T20:40:49.055Z,100.00
2022-10-06T20:43:15.502Z,100.00
2022-10-06T20:45:41.919Z,100.00
2022-10-06T20:48:08.303Z,100.00
2022-10-06T20:50:34.678Z,100.00
2022-10-06T20:53:01.176Z,100.00
2022-10-06T20:55:27.536Z,100.00
2022-10-06T20:57:54.822Z,100.00
2022-10-06T21:00:24.087Z,100.00
2022-10-06T21:02:50.915Z,100.00
2022-10-06T21:05:17.434Z,100.00
2022-10-06T21:07:44.234Z,100.00
2022-10-06T21:10:11.143Z,100.00
2022-10-06T21:12:37.672Z,100.00
2022-10-06T21:15:04.540Z,100.00
2022-10-06T21:17:31.210Z,100.00
2022-10-06T21:19:57.718Z,100.00
2022-10-06T21:22:24.230Z,100.00
2022-10-06T21:24:50.724Z,100.00
2022-10-06T21:27:19.015Z,100.00
2022-10-06T21:29:45.598Z,100.00
2022-10-06T21:32:12.132Z,100.00
2022-10-06T21:34:40.156Z,100.00
2022-10-06T21:37:06.672Z,100.00
2022-10-06T21:39:33.165Z,100.00
2022-10-06T21:41:59.715Z,100.00
2022-10-06T21:44:26.249Z,100.00
2022-10-06T21:46:56.217Z,100.00
2022-10-06T21:49:24.688Z,100.00
2022-10-06T21:51:54.238Z,100.00
2022-10-06T21:54:22.075Z,100.00
2022-10-06T21:56:49.405Z,100.00
2022-10-06T21:59:15.980Z,100.00
2022-10-06T22:01:44.422Z,100.00
2022-10-06T22:04:12.901Z,100.00
2022-10-06T22:06:40.002Z,100.00
2022-10-06T22:09:08.318Z,100.00
2022-10-06T22:11:37.593Z,100.00
2022-10-06T22:14:07.747Z,100.00
2022-10-06T22:16:35.832Z,100.00
2022-10-06T22:19:05.390Z,100.00
2022-10-06T22:21:34.575Z,100.00
2022-10-06T22:24:07.709Z,100.00
2022-10-06T22:26:39.370Z,100.00
2022-10-06T22:29:11.719Z,100.00
2022-10-06T22:31:44.673Z,100.00
2022-10-06T22:34:13.940Z,100.00
2022-10-06T22:36:40.676Z,100.00
2022-10-06T22:39:10.433Z,100.00
2022-10-06T22:41:37.935Z,100.00
2022-10-06T22:44:04.569Z,100.00
2022-10-06T22:46:33.477Z,100.00
2022-10-06T22:49:00.096Z,100.00
2022-10-06T22:51:26.826Z,100.00
2022-10-06T22:53:58.027Z,100.00
2022-10-06T22:56:26.364Z,100.00
2022-10-06T22:58:52.940Z,100.00
2022-10-06T23:01:19.692Z,100.00
2022-10-06T23:03:47.545Z,100.00
2022-10-06T23:06:16.016Z,100.00
2022-10-06T23:08:42.716Z,100.00
2022-10-06T23:11:12.970Z,100.00
2022-10-06T23:13:40.070Z,100.00
2022-10-06T23:16:09.204Z,100.00
2022-10-06T23:18:38.458Z,100.00
2022-10-06T23:21:05.217Z,100.00
2022-10-06T23:23:32.265Z,100.00
2022-10-06T23:26:11.191Z,100.00
2022-10-06T23:28:38.032Z,100.00
2022-10-06T23:31:07.009Z,100.00
2022-10-06T23:33:34.659Z,100.00
2022-10-06T23:36:04.472Z,100.00
2022-10-06T23:38:31.132Z,100.00
2022-10-06T23:40:58.131Z,100.00
2022-10-06T23:43:24.611Z,100.00
2022-10-06T23:45:51.181Z,100.00
2022-10-06T23:48:18.048Z,100.00
2022-10-06T23:50:55.487Z,100.00
2022-10-06T23:53:21.982Z,100.00
2022-10-06T23:55:48.494Z,100.00
2022-10-06T23:58:14.978Z,100.00
